sensor_id;sensor_type;location;lat;lon;timestamp;pressure;altitude;pressure_sealevel;temperature;humidity
60099;BME280;62818;49.394;8.686;2023-05-12T00:00:14;100125.44;;;12.57;100.00
60099;BME280;62818;49.394;8.686;2023-05-12T00:01:15;100127.13;;;12.71;100.00
60099;BME280;62818;49.394;8.686;2023-05-12T00:02:15;100122.78;;;12.57;100.00
60099;BME280;62818;49.394;8.686;2023-05-12T00:03:16;100121.75;;;12.58;100.00
60099;BME280;62818;49.394;8.686;2023-05-12T00:04:17;100127.84;;;12.52;100.00
60099;BME280;62818;49.394;8.686;2023-05-12T00:05:17;100127.78;;;12.73;100.00
60099;BME280;62818;49.394;8.686;2023-05-12T00:06:19;100127.47;;;12.55;100.00
60099;BME280;62818;49.394;8.686;2023-05-12T00:07:20;100125.44;;;12.57;100.00
60099;BME280;62818;49.394;8.686;2023-05-12T00:08:20;100121.03;;;12.43;100.00
60099;BME280;62818;49.394;8.686;2023-05-12T00:09:21;100112.38;;;12.34;100.00
60099;BME280;62818;49.394;8.686;2023-05-12T00:10:21;100111.31;;;12.29;100.00
60099;BME280;62818;49.394;8.686;2023-05-12T00:11:22;100118.91;;;12.32;100.00
60099;BME280;62818;49.394;8.686;2023-05-12T00:12:23;100122.88;;;12.42;100.00
60099;BME280;62818;49.394;8.686;2023-05-12T00:13:23;100114.50;;;12.45;100.00
60099;BME280;62818;49.394;8.686;2023-05-12T00:14:24;100120.94;;;12.30;100.00
60099;BME280;62818;49.394;8.686;2023-05-12T00:15:24;100118.69;;;12.27;100.00
60099;BME280;62818;49.394;8.686;2023-05-12T00:16:25;100126.25;;;12.30;100.00
60099;BME280;62818;49.394;8.686;2023-05-12T00:17:25;100118.88;;;12.53;100.00
60099;BME280;62818;49.394;8.686;2023-05-12T00:18:26;100128.19;;;12.42;100.00
60099;BME280;62818;49.394;8.686;2023-05-12T00:19:27;100120.22;;;12.42;100.00
60099;BME280;62818;49.394;8.686;2023-05-12T00:20:28;100125.97;;;12.46;100.00
60099;BME280;62818;49.394;8.686;2023-05-12T00:21:28;100124.34;;;12.51;100.00
60099;BME280;62818;49.394;8.686;2023-05-12T00:22:30;100119.34;;;12.35;100.00
60099;BME280;62818;49.394;8.686;2023-05-12T00:23:30;100117.84;;;12.54;100.00
60099;BME280;62818;49.394;8.686;2023-05-12T00:24:31;100123.56;;;12.51;100.00
60099;BME280;62818;49.394;8.686;2023-05-12T00:25:32;100120.00;;;12.72;100.00
60099;BME280;62818;49.394;8.686;2023-05-12T00:26:33;100119.78;;;12.39;100.00
60099;BME280;62818;49.394;8.686;2023-05-12T00:27:34;100109.19;;;12.45;100.00
60099;BME280;62818;49.394;8.686;2023-05-12T00:28:34;100115.75;;;12.49;100.00
60099;BME280;62818;49.394;8.686;2023-05-12T00:29:35;100115.41;;;12.59;100.00
60099;BME280;62818;49.394;8.686;2023-05-12T00:30:36;100117.13;;;12.67;100.00
60099;BME280;62818;49.394;8.686;2023-05-12T00:31:37;100115.34;;;12.46;100.00
60099;BME280;62818;49.394;8.686;2023-05-12T00:32:37;100115.09;;;12.41;100.00
60099;BME280;62818;49.394;8.686;2023-05-12T00:33:38;100109.72;;;12.34;100.00
60099;BME280;62818;49.394;8.686;2023-05-12T00:34:38;100105.06;;;12.43;100.00
60099;BME280;62818;49.394;8.686;2023-05-12T00:35:39;100112.56;;;12.60;100.00
60099;BME280;62818;49.394;8.686;2023-05-12T00:36:39;100108.81;;;12.48;100.00
60099;BME280;62818;49.394;8.686;2023-05-12T00:37:40;100107.56;;;12.44;100.00
60099;BME280;62818;49.394;8.686;2023-05-12T00:38:41;100108.34;;;12.45;100.00
60099;BME280;62818;49.394;8.686;2023-05-12T00:39:42;100107.72;;;12.43;100.00
60099;BME280;62818;49.394;8.686;2023-05-12T00:40:42;100112.25;;;12.42;100.00
60099;BME280;62818;49.394;8.686;2023-05-12T00:41:43;100107.72;;;12.43;100.00
60099;BME280;62818;49.394;8.686;2023-05-12T00:42:43;100109.31;;;12.65;100.00
60099;BME280;62818;49.394;8.686;2023-05-12T00:43:44;100101.81;;;12.75;100.00
60099;BME280;62818;49.394;8.686;2023-05-12T00:44:44;100105.94;;;12.50;100.00
60099;BME280;62818;49.394;8.686;2023-05-12T00:45:46;100107.09;;;12.41;100.00
60099;BME280;62818;49.394;8.686;2023-05-12T00:46:48;100107.50;;;12.38;100.00
60099;BME280;62818;49.394;8.686;2023-05-12T00:47:50;100113.22;;;12.35;100.00
60099;BME280;62818;49.394;8.686;2023-05-12T00:48:52;100102.94;;;12.32;100.00
60099;BME280;62818;49.394;8.686;2023-05-12T00:49:53;100104.19;;;12.36;100.00
60099;BME280;62818;49.394;8.686;2023-05-12T00:50:54;100105.31;;;12.48;100.00
60099;BME280;62818;49.394;8.686;2023-05-12T00:51:57;100104.44;;;12.69;100.00
60099;BME280;62818;49.394;8.686;2023-05-12T00:53:00;100101.50;;;12.57;100.00
60099;BME280;62818;49.394;8.686;2023-05-12T00:54:01;100106.06;;;12.70;100.00
60099;BME280;62818;49.394;8.686;2023-05-12T00:55:01;100098.75;;;12.44;100.00
60099;BME280;62818;49.394;8.686;2023-05-12T00:56:04;100103.56;;;12.34;100.00
60099;BME280;62818;49.394;8.686;2023-05-12T00:57:05;100100.38;;;12.45;100.00
60099;BME280;62818;49.394;8.686;2023-05-12T00:58:05;100097.19;;;12.56;100.00
60099;BME280;62818;49.394;8.686;2023-05-12T00:59:07;100100.47;;;12.58;100.00
60099;BME280;62818;49.394;8.686;2023-05-12T01:00:08;100096.47;;;12.41;100.00
60099;BME280;62818;49.394;8.686;2023-05-12T01:01:09;100095.41;;;12.63;100.00
60099;BME280;62818;49.394;8.686;2023-05-12T01:02:10;100094.28;;;12.85;100.00
60099;BME280;62818;49.394;8.686;2023-05-12T01:03:11;100094.22;;;12.72;100.00
60099;BME280;62818;49.394;8.686;2023-05-12T01:04:12;100093.72;;;12.90;100.00
60099;BME280;62818;49.394;8.686;2023-05-12T01:05:13;100091.47;;;12.93;100.00
60099;BME280;62818;49.394;8.686;2023-05-12T01:07:48;100086.91;;;12.81;100.00
60099;BME280;62818;49.394;8.686;2023-05-12T01:08:49;100081.19;;;12.84;100.00
60099;BME280;62818;49.394;8.686;2023-05-12T01:09:54;100092.13;;;12.61;100.00
60099;BME280;62818;49.394;8.686;2023-05-12T01:10:57;100089.22;;;12.56;100.00
60099;BME280;62818;49.394;8.686;2023-05-12T01:11:58;100080.94;;;12.72;100.00
60099;BME280;62818;49.394;8.686;2023-05-12T01:12:58;100096.22;;;12.63;100.00
60099;BME280;62818;49.394;8.686;2023-05-12T01:13:59;100083.81;;;12.43;100.00
60099;BME280;62818;49.394;8.686;2023-05-12T01:14:59;100089.34;;;12.41;100.00
60099;BME280;62818;49.394;8.686;2023-05-12T01:16:01;100090.41;;;12.53;100.00
60099;BME280;62818;49.394;8.686;2023-05-12T01:17:08;100084.00;;;12.76;100.00
60099;BME280;62818;49.394;8.686;2023-05-12T01:18:14;100081.72;;;12.66;100.00
60099;BME280;62818;49.394;8.686;2023-05-12T01:20:31;100092.50;;;12.58;100.00
60099;BME280;62818;49.394;8.686;2023-05-12T01:21:33;100087.91;;;12.45;100.00
60099;BME280;62818;49.394;8.686;2023-05-12T01:22:33;100087.72;;;12.47;100.00
60099;BME280;62818;49.394;8.686;2023-05-12T01:23:39;100089.13;;;12.43;100.00
60099;BME280;62818;49.394;8.686;2023-05-12T01:24:53;100088.44;;;12.62;100.00
60099;BME280;62818;49.394;8.686;2023-05-12T01:26:03;100088.00;;;12.93;100.00
60099;BME280;62818;49.394;8.686;2023-05-12T01:27:08;100090.91;;;13.04;100.00
60099;BME280;62818;49.394;8.686;2023-05-12T01:28:09;100092.31;;;13.00;100.00
60099;BME280;62818;49.394;8.686;2023-05-12T01:29:11;100093.09;;;12.88;100.00
60099;BME280;62818;49.394;8.686;2023-05-12T01:30:14;100087.16;;;12.86;100.00
60099;BME280;62818;49.394;8.686;2023-05-12T01:31:16;100086.50;;;12.77;100.00
60099;BME280;62818;49.394;8.686;2023-05-12T01:32:19;100084.50;;;12.92;100.00
60099;BME280;62818;49.394;8.686;2023-05-12T01:33:20;100085.28;;;12.80;100.00
60099;BME280;62818;49.394;8.686;2023-05-12T01:34:21;100092.25;;;12.87;100.00
60099;BME280;62818;49.394;8.686;2023-05-12T01:35:22;100087.25;;;12.71;100.00
60099;BME280;62818;49.394;8.686;2023-05-12T01:36:23;100083.59;;;12.72;100.00
60099;BME280;62818;49.394;8.686;2023-05-12T01:37:23;100084.59;;;12.71;100.00
60099;BME280;62818;49.394;8.686;2023-05-12T01:38:26;100084.22;;;12.74;100.00
60099;BME280;62818;49.394;8.686;2023-05-12T01:39:27;100087.13;;;12.51;100.00
60099;BME280;62818;49.394;8.686;2023-05-12T01:40:27;100087.09;;;12.45;100.00
60099;BME280;62818;49.394;8.686;2023-05-12T01:41:28;100085.56;;;12.57;100.00
60099;BME280;62818;49.394;8.686;2023-05-12T01:42:28;100086.41;;;12.64;100.00
60099;BME280;62818;49.394;8.686;2023-05-12T01:43:29;100086.06;;;12.80;100.00
60099;BME280;62818;49.394;8.686;2023-05-12T01:44:30;100088.59;;;12.88;100.00
60099;BME280;62818;49.394;8.686;2023-05-12T01:45:30;100086.78;;;12.61;100.00
60099;BME280;62818;49.394;8.686;2023-05-12T01:46:31;100094.06;;;12.46;100.00
60099;BME280;62818;49.394;8.686;2023-05-12T01:47:31;100090.81;;;12.50;100.00
60099;BME280;62818;49.394;8.686;2023-05-12T01:48:32;100088.91;;;12.72;100.00
60099;BME280;62818;49.394;8.686;2023-05-12T01:49:32;100092.13;;;12.61;100.00
60099;BME280;62818;49.394;8.686;2023-05-12T01:50:33;100089.22;;;12.56;100.00
60099;BME280;62818;49.394;8.686;2023-05-12T01:51:33;100093.28;;;12.52;100.00
60099;BME280;62818;49.394;8.686;2023-05-12T01:52:34;100092.88;;;12.48;100.00
60099;BME280;62818;49.394;8.686;2023-05-12T01:53:34;100088.84;;;12.59;100.00
60099;BME280;62818;49.394;8.686;2023-05-12T01:54:35;100090.78;;;12.78;100.00
60099;BME280;62818;49.394;8.686;2023-05-12T01:55:36;100087.34;;;12.84;100.00
60099;BME280;62818;49.394;8.686;2023-05-12T01:56:36;100090.16;;;12.76;100.00
60099;BME280;62818;49.394;8.686;2023-05-12T01:57:37;100086.22;;;12.65;100.00
60099;BME280;62818;49.394;8.686;2023-05-12T01:58:37;100095.47;;;12.76;100.00
60099;BME280;62818;49.394;8.686;2023-05-12T01:59:37;100098.03;;;12.91;100.00
60099;BME280;62818;49.394;8.686;2023-05-12T02:00:38;100092.28;;;12.94;100.00
60099;BME280;62818;49.394;8.686;2023-05-12T02:01:38;100093.31;;;12.93;100.00
60099;BME280;62818;49.394;8.686;2023-05-12T02:02:39;100091.03;;;12.90;100.00
60099;BME280;62818;49.394;8.686;2023-05-12T02:03:40;100091.38;;;12.74;100.00
60099;BME280;62818;49.394;8.686;2023-05-12T02:04:41;100093.44;;;12.78;100.00
60099;BME280;62818;49.394;8.686;2023-05-12T02:05:42;100091.91;;;12.97;100.00
60099;BME280;62818;49.394;8.686;2023-05-12T02:06:42;100087.25;;;12.71;100.00
60099;BME280;62818;49.394;8.686;2023-05-12T02:07:43;100089.84;;;12.92;100.00
60099;BME280;62818;49.394;8.686;2023-05-12T02:08:43;100095.94;;;12.86;100.00
60099;BME280;62818;49.394;8.686;2023-05-12T02:09:44;100091.78;;;12.71;100.00
60099;BME280;62818;49.394;8.686;2023-05-12T02:10:44;100096.50;;;12.75;100.00
60099;BME280;62818;49.394;8.686;2023-05-12T02:11:45;100088.44;;;12.62;100.00
60099;BME280;62818;49.394;8.686;2023-05-12T02:12:46;100091.97;;;12.76;100.00
60099;BME280;62818;49.394;8.686;2023-05-12T02:13:46;100101.69;;;12.90;100.00
60099;BME280;62818;49.394;8.686;2023-05-12T02:14:47;100094.78;;;12.61;100.00
60099;BME280;62818;49.394;8.686;2023-05-12T02:15:47;100091.53;;;12.65;100.00
60099;BME280;62818;49.394;8.686;2023-05-12T02:16:48;100095.03;;;12.66;100.00
60099;BME280;62818;49.394;8.686;2023-05-12T02:17:51;100097.97;;;12.50;100.00
60099;BME280;62818;49.394;8.686;2023-05-12T02:18:53;100099.25;;;12.60;100.00
60099;BME280;62818;49.394;8.686;2023-05-12T02:19:53;100095.41;;;12.63;100.00
60099;BME280;62818;49.394;8.686;2023-05-12T02:20:54;100097.88;;;12.71;100.00
60099;BME280;62818;49.394;8.686;2023-05-12T02:21:54;100090.75;;;12.72;100.00
60099;BME280;62818;49.394;8.686;2023-05-12T02:22:55;100095.81;;;12.60;100.00
60099;BME280;62818;49.394;8.686;2023-05-12T02:23:56;100100.00;;;12.48;100.00
60099;BME280;62818;49.394;8.686;2023-05-12T02:24:56;100103.63;;;12.68;100.00
60099;BME280;62818;49.394;8.686;2023-05-12T02:25:57;100099.63;;;12.85;100.00
60099;BME280;62818;49.394;8.686;2023-05-12T02:26:57;100095.59;;;13.02;100.00
60099;BME280;62818;49.394;8.686;2023-05-12T02:27:57;100094.78;;;12.95;100.00
60099;BME280;62818;49.394;8.686;2023-05-12T02:28:58;100095.72;;;12.81;100.00
60099;BME280;62818;49.394;8.686;2023-05-12T02:29:58;100098.19;;;12.89;100.00
60099;BME280;62818;49.394;8.686;2023-05-12T02:30:59;100096.78;;;12.93;100.00
60099;BME280;62818;49.394;8.686;2023-05-12T02:31:59;100091.78;;;12.71;100.00
60099;BME280;62818;49.394;8.686;2023-05-12T02:33:00;100090.13;;;12.70;100.00
60099;BME280;62818;49.394;8.686;2023-05-12T02:34:01;100084.69;;;12.84;100.00
60099;BME280;62818;49.394;8.686;2023-05-12T02:35:03;100094.50;;;12.84;100.00
60099;BME280;62818;49.394;8.686;2023-05-12T02:36:04;100091.97;;;12.76;100.00
60099;BME280;62818;49.394;8.686;2023-05-12T02:37:04;100089.44;;;12.95;100.00
60099;BME280;62818;49.394;8.686;2023-05-12T02:38:05;100091.44;;;12.87;100.00
60099;BME280;62818;49.394;8.686;2023-05-12T02:39:06;100091.16;;;12.69;100.00
60099;BME280;62818;49.394;8.686;2023-05-12T02:40:07;100085.59;;;12.63;100.00
60099;BME280;62818;49.394;8.686;2023-05-12T02:41:08;100086.00;;;12.67;100.00
60099;BME280;62818;49.394;8.686;2023-05-12T02:42:09;100085.28;;;12.80;100.00
60099;BME280;62818;49.394;8.686;2023-05-12T02:43:09;100083.66;;;12.85;100.00
60099;BME280;62818;49.394;8.686;2023-05-12T02:44:10;100074.16;;;12.70;100.00
60099;BME280;62818;49.394;8.686;2023-05-12T02:45:11;100087.38;;;12.56;100.00
60099;BME280;62818;49.394;8.686;2023-05-12T02:46:11;100083.97;;;12.69;100.00
60099;BME280;62818;49.394;8.686;2023-05-12T02:47:12;100087.97;;;12.52;100.00
60099;BME280;62818;49.394;8.686;2023-05-12T02:48:12;100084.63;;;12.43;100.00
60099;BME280;62818;49.394;8.686;2023-05-12T02:49:13;100084.75;;;12.29;100.00
60099;BME280;62818;49.394;8.686;2023-05-12T02:50:14;100088.50;;;12.41;100.00
60099;BME280;62818;49.394;8.686;2023-05-12T02:51:15;100087.50;;;12.42;100.00
60099;BME280;62818;49.394;8.686;2023-05-12T02:52:16;100088.22;;;12.57;100.00
60099;BME280;62818;49.394;8.686;2023-05-12T02:53:16;100089.22;;;12.56;100.00
60099;BME280;62818;49.394;8.686;2023-05-12T02:54:17;100093.66;;;12.42;100.00
60099;BME280;62818;49.394;8.686;2023-05-12T02:55:17;100091.16;;;12.41;100.00
60099;BME280;62818;49.394;8.686;2023-05-12T02:56:18;100087.00;;;12.32;100.00
60099;BME280;62818;49.394;8.686;2023-05-12T02:57:19;100090.81;;;12.50;100.00
60099;BME280;62818;49.394;8.686;2023-05-12T02:58:19;100087.25;;;12.71;100.00
60099;BME280;62818;49.394;8.686;2023-05-12T02:59:21;100087.31;;;12.78;100.00
60099;BME280;62818;49.394;8.686;2023-05-12T03:00:21;100085.06;;;12.81;100.00
60099;BME280;62818;49.394;8.686;2023-05-12T03:01:22;100085.28;;;12.80;100.00
60099;BME280;62818;49.394;8.686;2023-05-12T03:02:22;100091.00;;;12.83;100.00
60099;BME280;62818;49.394;8.686;2023-05-12T03:03:23;100089.78;;;12.79;100.00
60099;BME280;62818;49.394;8.686;2023-05-12T03:04:23;100090.63;;;12.86;100.00
60099;BME280;62818;49.394;8.686;2023-05-12T03:05:24;100090.84;;;12.91;100.00
60099;BME280;62818;49.394;8.686;2023-05-12T03:06:24;100083.69;;;12.92;100.00
60099;BME280;62818;49.394;8.686;2023-05-12T03:07:26;100078.03;;;12.67;100.00
60099;BME280;62818;49.394;8.686;2023-05-12T03:08:26;100081.84;;;12.58;100.00
60099;BME280;62818;49.394;8.686;2023-05-12T03:09:27;100084.41;;;12.73;100.00
60099;BME280;62818;49.394;8.686;2023-05-12T03:10:27;100087.94;;;12.80;100.00
60099;BME280;62818;49.394;8.686;2023-05-12T03:11:28;100085.84;;;12.69;100.00
60099;BME280;62818;49.394;8.686;2023-05-12T03:12:28;100082.41;;;12.81;100.00
60099;BME280;62818;49.394;8.686;2023-05-12T03:13:29;100083.66;;;12.85;100.00
60099;BME280;62818;49.394;8.686;2023-05-12T03:14:29;100078.16;;;12.93;100.00
60099;BME280;62818;49.394;8.686;2023-05-12T03:15:35;100083.50;;;12.59;100.00
60099;BME280;62818;49.394;8.686;2023-05-12T03:16:35;100077.75;;;12.49;100.00
60099;BME280;62818;49.394;8.686;2023-05-12T03:17:36;100076.13;;;12.54;100.00
60099;BME280;62818;49.394;8.686;2023-05-12T03:18:37;100081.41;;;12.48;100.00
60099;BME280;62818;49.394;8.686;2023-05-12T03:19:37;100083.28;;;12.54;100.00
60099;BME280;62818;49.394;8.686;2023-05-12T03:20:38;100086.06;;;12.39;100.00
60099;BME280;62818;49.394;8.686;2023-05-12T03:21:38;100086.53;;;12.22;100.00
60099;BME280;62818;49.394;8.686;2023-05-12T03:22:39;100089.72;;;12.38;100.00
60099;BME280;62818;49.394;8.686;2023-05-12T03:23:40;100093.44;;;12.44;100.00
60099;BME280;62818;49.394;8.686;2023-05-12T03:24:40;100099.91;;;12.35;100.00
60099;BME280;62818;49.394;8.686;2023-05-12T03:25:41;100088.03;;;12.65;100.00
60099;BME280;62818;49.394;8.686;2023-05-12T03:26:41;100094.16;;;12.59;100.00
60099;BME280;62818;49.394;8.686;2023-05-12T03:27:42;100092.78;;;12.35;100.00
60099;BME280;62818;49.394;8.686;2023-05-12T03:28:42;100087.59;;;12.27;100.00
60099;BME280;62818;49.394;8.686;2023-05-12T03:29:43;100090.81;;;12.23;100.00
60099;BME280;62818;49.394;8.686;2023-05-12T03:30:43;100090.19;;;12.21;100.00
60099;BME280;62818;49.394;8.686;2023-05-12T03:31:44;100084.13;;;12.27;100.00
60099;BME280;62818;49.394;8.686;2023-05-12T03:32:45;100089.09;;;12.36;100.00
60099;BME280;62818;49.394;8.686;2023-05-12T03:33:45;100096.78;;;12.25;100.00
60099;BME280;62818;49.394;8.686;2023-05-12T03:34:45;100088.22;;;12.29;100.00
60099;BME280;62818;49.394;8.686;2023-05-12T03:35:46;100095.44;;;12.35;100.00
60099;BME280;62818;49.394;8.686;2023-05-12T03:36:47;100092.94;;;12.34;100.00
60099;BME280;62818;49.394;8.686;2023-05-12T03:37:47;100098.41;;;12.26;100.00
60099;BME280;62818;49.394;8.686;2023-05-12T03:38:48;100095.50;;;12.21;100.00
60099;BME280;62818;49.394;8.686;2023-05-12T03:39:48;100091.94;;;12.35;100.00
60099;BME280;62818;49.394;8.686;2023-05-12T03:40:49;100093.72;;;12.55;100.00
60099;BME280;62818;49.394;8.686;2023-05-12T03:41:51;100091.66;;;12.51;100.00
60099;BME280;62818;49.394;8.686;2023-05-12T03:42:52;100090.50;;;12.60;100.00
60099;BME280;62818;49.394;8.686;2023-05-12T03:43:52;100088.03;;;12.65;100.00
60099;BME280;62818;49.394;8.686;2023-05-12T03:44:53;100091.31;;;12.67;100.00
60099;BME280;62818;49.394;8.686;2023-05-12T03:45:54;100086.00;;;12.67;100.00
60099;BME280;62818;49.394;8.686;2023-05-12T03:46:54;100082.66;;;12.52;100.00
60099;BME280;62818;49.394;8.686;2023-05-12T03:47:55;100090.25;;;12.55;100.00
60099;BME280;62818;49.394;8.686;2023-05-12T03:48:56;100089.69;;;12.66;100.00
60099;BME280;62818;49.394;8.686;2023-05-12T03:49:57;100097.34;;;12.48;100.00
60099;BME280;62818;49.394;8.686;2023-05-12T03:50:58;100089.75;;;12.45;100.00
60099;BME280;62818;49.394;8.686;2023-05-12T03:51:58;100088.50;;;12.41;100.00
60099;BME280;62818;49.394;8.686;2023-05-12T03:52:59;100088.09;;;12.37;100.00
60099;BME280;62818;49.394;8.686;2023-05-12T03:54:00;100091.16;;;12.41;100.00
60099;BME280;62818;49.394;8.686;2023-05-12T03:55:00;100092.19;;;12.40;100.00
60099;BME280;62818;49.394;8.686;2023-05-12T03:56:04;100088.41;;;12.55;100.00
60099;BME280;62818;49.394;8.686;2023-05-12T03:57:05;100089.25;;;12.62;100.00
60099;BME280;62818;49.394;8.686;2023-05-12T03:58:06;100085.94;;;12.54;100.00
60099;BME280;62818;49.394;8.686;2023-05-12T03:59:07;100095.34;;;12.56;100.00
60099;BME280;62818;49.394;8.686;2023-05-12T04:00:08;100093.03;;;12.47;100.00
60099;BME280;62818;49.394;8.686;2023-05-12T04:01:09;100085.09;;;12.53;100.00
60099;BME280;62818;49.394;8.686;2023-05-12T04:02:09;100083.44;;;12.46;100.00
60099;BME280;62818;49.394;8.686;2023-05-12T04:03:12;100081.72;;;12.38;100.00
60099;BME280;62818;49.394;8.686;2023-05-12T04:04:12;100093.91;;;12.54;100.00
60099;BME280;62818;49.394;8.686;2023-05-12T04:05:13;100081.50;;;12.68;100.00
60099;BME280;62818;49.394;8.686;2023-05-12T04:06:13;100085.94;;;12.54;100.00
60099;BME280;62818;49.394;8.686;2023-05-12T04:07:14;100087.84;;;12.32;100.00
60099;BME280;62818;49.394;8.686;2023-05-12T04:08:14;100087.47;;;12.35;100.00
60099;BME280;62818;49.394;8.686;2023-05-12T04:09:15;100089.13;;;12.43;100.00
60099;BME280;62818;49.394;8.686;2023-05-12T04:10:16;100086.00;;;12.67;100.00
60099;BME280;62818;49.394;8.686;2023-05-12T04:11:16;100081.16;;;12.77;100.00
60099;BME280;62818;49.394;8.686;2023-05-12T04:12:17;100083.22;;;12.75;100.00
60099;BME280;62818;49.394;8.686;2023-05-12T04:13:17;100092.19;;;12.74;100.00
60099;BME280;62818;49.394;8.686;2023-05-12T04:14:18;100093.78;;;12.62;100.00
60099;BME280;62818;49.394;8.686;2023-05-12T04:15:19;100090.09;;;12.63;100.00
60099;BME280;62818;49.394;8.686;2023-05-12T04:16:20;100083.34;;;12.67;100.00
60099;BME280;62818;49.394;8.686;2023-05-12T04:17:21;100088.38;;;12.49;100.00
60099;BME280;62818;49.394;8.686;2023-05-12T04:18:22;100083.34;;;12.33;100.00
60099;BME280;62818;49.394;8.686;2023-05-12T04:19:23;100089.13;;;12.43;100.00
60099;BME280;62818;49.394;8.686;2023-05-12T04:20:24;100095.88;;;12.73;100.00
60099;BME280;62818;49.394;8.686;2023-05-12T04:21:25;100085.47;;;12.78;100.00
60099;BME280;62818;49.394;8.686;2023-05-12T04:22:26;100083.13;;;12.62;100.00
60099;BME280;62818;49.394;8.686;2023-05-12T04:23:26;100088.34;;;12.42;100.00
60099;BME280;62818;49.394;8.686;2023-05-12T04:24:27;100096.44;;;12.34;100.00
60099;BME280;62818;49.394;8.686;2023-05-12T04:25:28;100090.69;;;12.31;100.00
60099;BME280;62818;49.394;8.686;2023-05-12T04:26:28;100093.34;;;12.31;100.00
60099;BME280;62818;49.394;8.686;2023-05-12T04:27:29;100101.44;;;12.23;100.00
60099;BME280;62818;49.394;8.686;2023-05-12T04:28:29;100093.69;;;12.21;100.00
60099;BME280;62818;49.394;8.686;2023-05-12T04:29:30;100100.41;;;12.17;100.00
60099;BME280;62818;49.394;8.686;2023-05-12T04:30:31;100092.31;;;12.32;100.00
60099;BME280;62818;49.394;8.686;2023-05-12T04:31:32;100098.50;;;12.39;100.00
60099;BME280;62818;49.394;8.686;2023-05-12T04:32:32;100101.91;;;12.60;100.00
60099;BME280;62818;49.394;8.686;2023-05-12T04:33:32;100095.47;;;12.42;100.00
60099;BME280;62818;49.394;8.686;2023-05-12T04:34:33;100109.03;;;12.26;100.00
60099;BME280;62818;49.394;8.686;2023-05-12T04:35:34;100108.75;;;12.42;100.00
60099;BME280;62818;49.394;8.686;2023-05-12T04:36:35;100103.78;;;12.60;100.00
60099;BME280;62818;49.394;8.686;2023-05-12T04:37:35;100105.03;;;12.64;100.00
60099;BME280;62818;49.394;8.686;2023-05-12T04:38:36;100103.53;;;12.55;100.00
60099;BME280;62818;49.394;8.686;2023-05-12T04:39:37;100103.16;;;12.64;100.00
60099;BME280;62818;49.394;8.686;2023-05-12T04:40:37;100103.78;;;12.60;100.00
60099;BME280;62818;49.394;8.686;2023-05-12T04:41:37;100100.53;;;12.71;100.00
60099;BME280;62818;49.394;8.686;2023-05-12T04:42:38;100103.03;;;12.73;100.00
60099;BME280;62818;49.394;8.686;2023-05-12T04:43:38;100098.38;;;12.81;100.00
60099;BME280;62818;49.394;8.686;2023-05-12T04:44:39;100101.19;;;12.73;100.00
60099;BME280;62818;49.394;8.686;2023-05-12T04:45:39;100104.78;;;12.59;100.00
60099;BME280;62818;49.394;8.686;2023-05-12T04:46:40;100103.66;;;12.47;100.00
60099;BME280;62818;49.394;8.686;2023-05-12T04:47:42;100104.63;;;12.67;100.00
60099;BME280;62818;49.394;8.686;2023-05-12T04:48:42;100103.66;;;12.75;100.00
60099;BME280;62818;49.394;8.686;2023-05-12T04:49:43;100107.69;;;12.64;100.00
60099;BME280;62818;49.394;8.686;2023-05-12T04:50:44;100109.31;;;12.65;100.00
60099;BME280;62818;49.394;8.686;2023-05-12T04:51:45;100103.44;;;12.76;100.00
60099;BME280;62818;49.394;8.686;2023-05-12T04:52:46;100110.56;;;12.69;100.00
60099;BME280;62818;49.394;8.686;2023-05-12T04:53:46;100101.63;;;12.77;100.00
60099;BME280;62818;49.394;8.686;2023-05-12T04:54:47;100111.09;;;12.86;100.00
60099;BME280;62818;49.394;8.686;2023-05-12T04:55:47;100118.06;;;12.93;100.00
60099;BME280;62818;49.394;8.686;2023-05-12T04:56:49;100114.00;;;12.91;100.00
60099;BME280;62818;49.394;8.686;2023-05-12T04:57:49;100111.91;;;12.86;100.00
60099;BME280;62818;49.394;8.686;2023-05-12T04:58:50;100116.44;;;12.92;100.00
60099;BME280;62818;49.394;8.686;2023-05-12T04:59:50;100112.44;;;12.69;100.00
60099;BME280;62818;49.394;8.686;2023-05-12T05:00:51;100119.09;;;12.58;100.00
60099;BME280;62818;49.394;8.686;2023-05-12T05:01:52;100113.38;;;12.61;100.00
60099;BME280;62818;49.394;8.686;2023-05-12T05:02:53;100120.38;;;12.62;100.00
60099;BME280;62818;49.394;8.686;2023-05-12T05:03:53;100117.06;;;12.60;100.00
60099;BME280;62818;49.394;8.686;2023-05-12T05:04:54;100117.00;;;12.53;100.00
60099;BME280;62818;49.394;8.686;2023-05-12T05:05:55;100112.13;;;12.57;100.00
60099;BME280;62818;49.394;8.686;2023-05-12T05:06:55;100121.56;;;12.59;100.00
60099;BME280;62818;49.394;8.686;2023-05-12T05:07:56;100115.41;;;12.59;100.00
60099;BME280;62818;49.394;8.686;2023-05-12T05:08:56;100120.94;;;12.57;100.00
60099;BME280;62818;49.394;8.686;2023-05-12T05:09:57;100126.47;;;12.62;100.00
60099;BME280;62818;49.394;8.686;2023-05-12T05:10:57;100112.19;;;12.63;100.00
60099;BME280;62818;49.394;8.686;2023-05-12T05:11:58;100118.00;;;12.80;100.00
60099;BME280;62818;49.394;8.686;2023-05-12T05:12:59;100127.13;;;12.71;100.00
60099;BME280;62818;49.394;8.686;2023-05-12T05:13:59;100120.19;;;12.70;100.00
60099;BME280;62818;49.394;8.686;2023-05-12T05:15:00;100118.16;;;12.72;100.00
60099;BME280;62818;49.394;8.686;2023-05-12T05:16:00;100118.41;;;12.77;100.00
60099;BME280;62818;49.394;8.686;2023-05-12T05:17:01;100119.69;;;12.88;100.00